sensor_id;sensor_type;location;lat;lon;timestamp;temperature;humidity
35127;DHT22;21300;52.006;5.798;2023-07-09T00:02:18;25.40;69.00
35127;DHT22;21300;52.006;5.798;2023-07-09T00:04:44;25.30;69.10
35127;DHT22;21300;52.006;5.798;2023-07-09T00:07:29;25.30;69.20
35127;DHT22;21300;52.006;5.798;2023-07-09T00:09:55;25.30;69.20
35127;DHT22;21300;52.006;5.798;2023-07-09T00:12:21;25.30;69.20
35127;DHT22;21300;52.006;5.798;2023-07-09T00:14:47;25.20;69.20
35127;DHT22;21300;52.006;5.798;2023-07-09T00:17:21;25.20;69.30
35127;DHT22;21300;52.006;5.798;2023-07-09T00:19:47;25.20;69.30
35127;DHT22;21300;52.006;5.798;2023-07-09T00:22:15;25.20;69.40
35127;DHT22;21300;52.006;5.798;2023-07-09T00:24:50;25.10;69.30
35127;DHT22;21300;52.006;5.798;2023-07-09T00:27:20;25.10;69.40
35127;DHT22;21300;52.006;5.798;2023-07-09T00:29:46;25.10;69.50
35127;DHT22;21300;52.006;5.798;2023-07-09T00:32:17;25.10;69.60
35127;DHT22;21300;52.006;5.798;2023-07-09T00:34:46;25.10;69.60
35127;DHT22;21300;52.006;5.798;2023-07-09T00:37:17;25.00;69.70
35127;DHT22;21300;52.006;5.798;2023-07-09T00:39:45;25.00;69.70
35127;DHT22;21300;52.006;5.798;2023-07-09T00:42:13;25.00;69.80
35127;DHT22;21300;52.006;5.798;2023-07-09T00:44:46;24.90;69.80
35127;DHT22;21300;52.006;5.798;2023-07-09T00:47:41;24.90;69.80
35127;DHT22;21300;52.006;5.798;2023-07-09T00:50:15;24.90;70.00
35127;DHT22;21300;52.006;5.798;2023-07-09T00:53:09;24.90;70.00
35127;DHT22;21300;52.006;5.798;2023-07-09T00:55:39;24.80;70.00
35127;DHT22;21300;52.006;5.798;2023-07-09T00:58:11;24.80;70.00
35127;DHT22;21300;52.006;5.798;2023-07-09T01:00:49;24.80;70.10
35127;DHT22;21300;52.006;5.798;2023-07-09T01:03:48;24.70;70.00
35127;DHT22;21300;52.006;5.798;2023-07-09T01:06:21;24.70;70.10
35127;DHT22;21300;52.006;5.798;2023-07-09T01:08:49;24.70;70.10
35127;DHT22;21300;52.006;5.798;2023-07-09T01:11:20;24.70;70.10
35127;DHT22;21300;52.006;5.798;2023-07-09T01:13:48;24.60;70.10
35127;DHT22;21300;52.006;5.798;2023-07-09T01:16:16;24.60;70.00
35127;DHT22;21300;52.006;5.798;2023-07-09T01:18:42;24.60;70.10
35127;DHT22;21300;52.006;5.798;2023-07-09T01:21:10;24.60;70.10
35127;DHT22;21300;52.006;5.798;2023-07-09T01:23:45;24.50;70.90
35127;DHT22;21300;52.006;5.798;2023-07-09T01:26:13;24.50;70.10
35127;DHT22;21300;52.006;5.798;2023-07-09T01:28:39;24.50;70.20
35127;DHT22;21300;52.006;5.798;2023-07-09T01:31:09;24.50;70.20
35127;DHT22;21300;52.006;5.798;2023-07-09T01:33:35;24.50;70.30
35127;DHT22;21300;52.006;5.798;2023-07-09T01:36:02;24.40;70.30
35127;DHT22;21300;52.006;5.798;2023-07-09T01:38:27;24.40;70.40
35127;DHT22;21300;52.006;5.798;2023-07-09T01:40:59;24.40;70.50
35127;DHT22;21300;52.006;5.798;2023-07-09T01:43:26;24.40;70.60
35127;DHT22;21300;52.006;5.798;2023-07-09T01:45:52;24.40;70.60
35127;DHT22;21300;52.006;5.798;2023-07-09T01:48:18;24.30;70.60
35127;DHT22;21300;52.006;5.798;2023-07-09T01:50:46;24.30;70.70
35127;DHT22;21300;52.006;5.798;2023-07-09T01:53:13;24.30;70.80
35127;DHT22;21300;52.006;5.798;2023-07-09T01:55:40;24.30;70.90
35127;DHT22;21300;52.006;5.798;2023-07-09T01:58:05;24.20;70.90
35127;DHT22;21300;52.006;5.798;2023-07-09T02:00:33;24.20;70.90
35127;DHT22;21300;52.006;5.798;2023-07-09T02:03:02;24.20;71.00
35127;DHT22;21300;52.006;5.798;2023-07-09T02:05:31;24.20;71.00
35127;DHT22;21300;52.006;5.798;2023-07-09T02:07:56;24.20;71.10
35127;DHT22;21300;52.006;5.798;2023-07-09T02:10:22;24.10;71.10
35127;DHT22;21300;52.006;5.798;2023-07-09T02:12:48;24.10;71.20
35127;DHT22;21300;52.006;5.798;2023-07-09T02:15:14;24.10;72.10
35127;DHT22;21300;52.006;5.798;2023-07-09T02:17:40;24.10;71.30
35127;DHT22;21300;52.006;5.798;2023-07-09T02:20:07;24.00;71.50
35127;DHT22;21300;52.006;5.798;2023-07-09T02:22:34;24.00;71.50
35127;DHT22;21300;52.006;5.798;2023-07-09T02:25:00;24.00;71.50
35127;DHT22;21300;52.006;5.798;2023-07-09T02:27:26;24.00;71.60
35127;DHT22;21300;52.006;5.798;2023-07-09T02:29:53;23.90;71.50
35127;DHT22;21300;52.006;5.798;2023-07-09T02:32:22;23.90;71.60
35127;DHT22;21300;52.006;5.798;2023-07-09T02:34:48;23.90;71.70
35127;DHT22;21300;52.006;5.798;2023-07-09T02:37:25;23.90;71.70
35127;DHT22;21300;52.006;5.798;2023-07-09T02:39:51;23.80;71.60
35127;DHT22;21300;52.006;5.798;2023-07-09T02:42:20;23.80;71.80
35127;DHT22;21300;52.006;5.798;2023-07-09T02:44:46;23.80;71.90
35127;DHT22;21300;52.006;5.798;2023-07-09T02:47:13;23.80;71.80
35127;DHT22;21300;52.006;5.798;2023-07-09T02:49:39;23.80;71.90
35127;DHT22;21300;52.006;5.798;2023-07-09T02:52:05;23.80;72.00
35127;DHT22;21300;52.006;5.798;2023-07-09T02:54:31;23.70;71.90
35127;DHT22;21300;52.006;5.798;2023-07-09T02:56:57;23.70;72.00
35127;DHT22;21300;52.006;5.798;2023-07-09T02:59:22;23.70;72.00
35127;DHT22;21300;52.006;5.798;2023-07-09T03:01:49;23.70;72.10
35127;DHT22;21300;52.006;5.798;2023-07-09T03:04:15;23.70;72.20
35127;DHT22;21300;52.006;5.798;2023-07-09T03:06:41;23.70;72.20
35127;DHT22;21300;52.006;5.798;2023-07-09T03:09:07;23.60;72.20
35127;DHT22;21300;52.006;5.798;2023-07-09T03:11:34;23.60;72.30
35127;DHT22;21300;52.006;5.798;2023-07-09T03:14:01;23.60;72.30
35127;DHT22;21300;52.006;5.798;2023-07-09T03:16:32;23.60;72.40
35127;DHT22;21300;52.006;5.798;2023-07-09T03:18:59;23.60;72.40
35127;DHT22;21300;52.006;5.798;2023-07-09T03:21:26;23.50;72.50
35127;DHT22;21300;52.006;5.798;2023-07-09T03:23:53;23.50;72.50
35127;DHT22;21300;52.006;5.798;2023-07-09T03:26:19;23.50;72.60
35127;DHT22;21300;52.006;5.798;2023-07-09T03:28:45;23.50;72.60
35127;DHT22;21300;52.006;5.798;2023-07-09T03:31:11;23.40;72.60
35127;DHT22;21300;52.006;5.798;2023-07-09T03:33:36;23.40;72.60
35127;DHT22;21300;52.006;5.798;2023-07-09T03:36:03;23.40;72.80
35127;DHT22;21300;52.006;5.798;2023-07-09T03:38:30;23.40;72.80
35127;DHT22;21300;52.006;5.798;2023-07-09T03:40:56;23.40;72.80
35127;DHT22;21300;52.006;5.798;2023-07-09T03:43:22;23.30;72.80
35127;DHT22;21300;52.006;5.798;2023-07-09T03:45:48;23.30;72.80
35127;DHT22;21300;52.006;5.798;2023-07-09T03:48:15;23.30;73.00
35127;DHT22;21300;52.006;5.798;2023-07-09T03:50:42;23.30;72.90
35127;DHT22;21300;52.006;5.798;2023-07-09T03:53:09;23.30;73.00
35127;DHT22;21300;52.006;5.798;2023-07-09T03:55:34;23.20;73.10
35127;DHT22;21300;52.006;5.798;2023-07-09T03:58:00;23.20;73.10
35127;DHT22;21300;52.006;5.798;2023-07-09T04:00:28;23.10;74.90
35127;DHT22;21300;52.006;5.798;2023-07-09T04:02:53;22.90;74.20
35127;DHT22;21300;52.006;5.798;2023-07-09T04:05:25;22.70;75.10
35127;DHT22;21300;52.006;5.798;2023-07-09T04:07:51;22.60;76.30
35127;DHT22;21300;52.006;5.798;2023-07-09T04:10:17;22.40;77.90
35127;DHT22;21300;52.006;5.798;2023-07-09T04:12:43;22.20;78.00
35127;DHT22;21300;52.006;5.798;2023-07-09T04:15:10;22.20;78.60
35127;DHT22;21300;52.006;5.798;2023-07-09T04:17:38;22.20;78.60
35127;DHT22;21300;52.006;5.798;2023-07-09T04:20:05;22.10;79.30
35127;DHT22;21300;52.006;5.798;2023-07-09T04:22:34;22.00;79.50
35127;DHT22;21300;52.006;5.798;2023-07-09T04:25:01;22.00;79.60
35127;DHT22;21300;52.006;5.798;2023-07-09T04:27:28;21.90;80.70
35127;DHT22;21300;52.006;5.798;2023-07-09T04:29:53;21.80;81.10
35127;DHT22;21300;52.006;5.798;2023-07-09T04:32:20;21.80;81.20
35127;DHT22;21300;52.006;5.798;2023-07-09T04:34:46;21.80;81.60
35127;DHT22;21300;52.006;5.798;2023-07-09T04:37:12;21.80;82.30
35127;DHT22;21300;52.006;5.798;2023-07-09T04:39:38;21.80;81.80
35127;DHT22;21300;52.006;5.798;2023-07-09T04:42:06;21.80;82.00
35127;DHT22;21300;52.006;5.798;2023-07-09T04:44:33;21.80;82.30
35127;DHT22;21300;52.006;5.798;2023-07-09T04:46:58;21.80;82.70
35127;DHT22;21300;52.006;5.798;2023-07-09T04:49:24;21.70;84.50
35127;DHT22;21300;52.006;5.798;2023-07-09T04:51:49;21.70;83.80
35127;DHT22;21300;52.006;5.798;2023-07-09T04:54:15;21.70;84.50
35127;DHT22;21300;52.006;5.798;2023-07-09T04:56:42;21.70;84.80
35127;DHT22;21300;52.006;5.798;2023-07-09T04:59:11;21.70;85.60
35127;DHT22;21300;52.006;5.798;2023-07-09T05:01:36;21.70;85.30
35127;DHT22;21300;52.006;5.798;2023-07-09T05:04:02;21.70;85.80
35127;DHT22;21300;52.006;5.798;2023-07-09T05:06:28;21.70;86.70
35127;DHT22;21300;52.006;5.798;2023-07-09T05:08:53;21.80;86.40
35127;DHT22;21300;52.006;5.798;2023-07-09T05:11:19;21.80;85.90
35127;DHT22;21300;52.006;5.798;2023-07-09T05:13:44;21.80;86.90
35127;DHT22;21300;52.006;5.798;2023-07-09T05:16:10;21.80;87.10
35127;DHT22;21300;52.006;5.798;2023-07-09T05:18:37;21.80;87.60
35127;DHT22;21300;52.006;5.798;2023-07-09T05:21:03;21.90;87.60
35127;DHT22;21300;52.006;5.798;2023-07-09T05:23:28;21.90;87.90
35127;DHT22;21300;52.006;5.798;2023-07-09T05:25:58;21.90;88.80
35127;DHT22;21300;52.006;5.798;2023-07-09T05:28:24;22.00;89.00
35127;DHT22;21300;52.006;5.798;2023-07-09T05:30:50;22.00;88.50
35127;DHT22;21300;52.006;5.798;2023-07-09T05:33:17;22.10;88.30
35127;DHT22;21300;52.006;5.798;2023-07-09T05:35:43;22.20;88.30
35127;DHT22;21300;52.006;5.798;2023-07-09T05:38:09;22.30;87.90
35127;DHT22;21300;52.006;5.798;2023-07-09T05:40:34;22.30;88.20
35127;DHT22;21300;52.006;5.798;2023-07-09T05:43:00;22.20;89.10
35127;DHT22;21300;52.006;5.798;2023-07-09T05:45:26;22.30;88.50
35127;DHT22;21300;52.006;5.798;2023-07-09T05:47:51;22.30;89.00
35127;DHT22;21300;52.006;5.798;2023-07-09T05:50:17;22.40;89.10
35127;DHT22;21300;52.006;5.798;2023-07-09T05:52:43;22.50;87.60
35127;DHT22;21300;52.006;5.798;2023-07-09T05:55:08;22.50;86.30
35127;DHT22;21300;52.006;5.798;2023-07-09T05:57:34;22.60;84.40
35127;DHT22;21300;52.006;5.798;2023-07-09T05:59:59;22.60;83.80
35127;DHT22;21300;52.006;5.798;2023-07-09T06:02:25;22.70;83.20
35127;DHT22;21300;52.006;5.798;2023-07-09T06:04:51;22.80;82.70
35127;DHT22;21300;52.006;5.798;2023-07-09T06:07:16;22.80;83.70
35127;DHT22;21300;52.006;5.798;2023-07-09T06:09:44;22.90;84.10
35127;DHT22;21300;52.006;5.798;2023-07-09T06:12:11;22.90;84.70
35127;DHT22;21300;52.006;5.798;2023-07-09T06:14:37;22.90;83.90
35127;DHT22;21300;52.006;5.798;2023-07-09T06:17:02;23.00;84.70
35127;DHT22;21300;52.006;5.798;2023-07-09T06:19:28;23.00;83.40
35127;DHT22;21300;52.006;5.798;2023-07-09T06:21:54;23.10;83.10
35127;DHT22;21300;52.006;5.798;2023-07-09T06:24:21;23.10;83.00
35127;DHT22;21300;52.006;5.798;2023-07-09T06:26:47;23.20;82.80
35127;DHT22;21300;52.006;5.798;2023-07-09T06:29:12;23.20;82.40
35127;DHT22;21300;52.006;5.798;2023-07-09T06:31:38;23.30;82.10
35127;DHT22;21300;52.006;5.798;2023-07-09T06:34:06;23.30;81.90
35127;DHT22;21300;52.006;5.798;2023-07-09T06:36:32;23.30;81.70
35127;DHT22;21300;52.006;5.798;2023-07-09T06:38:58;23.40;81.70
35127;DHT22;21300;52.006;5.798;2023-07-09T06:41:24;23.40;81.70
35127;DHT22;21300;52.006;5.798;2023-07-09T06:43:50;23.50;81.50
35127;DHT22;21300;52.006;5.798;2023-07-09T06:46:17;23.50;81.40
35127;DHT22;21300;52.006;5.798;2023-07-09T06:48:44;23.50;81.30
35127;DHT22;21300;52.006;5.798;2023-07-09T06:51:09;23.60;81.20
35127;DHT22;21300;52.006;5.798;2023-07-09T06:53:35;23.70;81.00
35127;DHT22;21300;52.006;5.798;2023-07-09T06:56:02;23.70;80.90
35127;DHT22;21300;52.006;5.798;2023-07-09T06:58:30;23.80;80.70
35127;DHT22;21300;52.006;5.798;2023-07-09T07:01:03;23.80;80.50
35127;DHT22;21300;52.006;5.798;2023-07-09T07:03:32;23.80;80.30
35127;DHT22;21300;52.006;5.798;2023-07-09T07:05:58;23.90;80.10
35127;DHT22;21300;52.006;5.798;2023-07-09T07:08:25;23.90;80.80
35127;DHT22;21300;52.006;5.798;2023-07-09T07:10:58;23.90;79.80
35127;DHT22;21300;52.006;5.798;2023-07-09T07:13:29;24.00;79.60
35127;DHT22;21300;52.006;5.798;2023-07-09T07:15:55;24.00;79.50
35127;DHT22;21300;52.006;5.798;2023-07-09T07:18:20;24.10;79.40
35127;DHT22;21300;52.006;5.798;2023-07-09T07:20:46;24.10;79.20
35127;DHT22;21300;52.006;5.798;2023-07-09T07:23:12;24.20;79.00
35127;DHT22;21300;52.006;5.798;2023-07-09T07:25:37;24.20;78.80
35127;DHT22;21300;52.006;5.798;2023-07-09T07:28:03;24.20;78.60
35127;DHT22;21300;52.006;5.798;2023-07-09T07:30:29;24.30;78.50
35127;DHT22;21300;52.006;5.798;2023-07-09T07:32:55;24.40;78.30
35127;DHT22;21300;52.006;5.798;2023-07-09T07:35:20;24.40;78.10
35127;DHT22;21300;52.006;5.798;2023-07-09T07:37:46;24.40;78.00
35127;DHT22;21300;52.006;5.798;2023-07-09T07:40:11;24.50;77.90
35127;DHT22;21300;52.006;5.798;2023-07-09T07:42:37;24.50;77.80
35127;DHT22;21300;52.006;5.798;2023-07-09T07:45:03;24.50;77.70
35127;DHT22;21300;52.006;5.798;2023-07-09T07:47:30;24.60;77.60
35127;DHT22;21300;52.006;5.798;2023-07-09T07:49:56;24.60;78.00
35127;DHT22;21300;52.006;5.798;2023-07-09T07:52:22;24.60;77.70
35127;DHT22;21300;52.006;5.798;2023-07-09T07:54:48;24.70;77.60
35127;DHT22;21300;52.006;5.798;2023-07-09T07:57:14;24.70;77.40
35127;DHT22;21300;52.006;5.798;2023-07-09T07:59:40;24.80;77.70
35127;DHT22;21300;52.006;5.798;2023-07-09T08:02:10;24.80;77.70
35127;DHT22;21300;52.006;5.798;2023-07-09T08:04:36;24.80;77.40
35127;DHT22;21300;52.006;5.798;2023-07-09T08:07:01;24.90;77.50
35127;DHT22;21300;52.006;5.798;2023-07-09T08:09:27;24.90;77.10
35127;DHT22;21300;52.006;5.798;2023-07-09T08:11:53;24.90;77.10
35127;DHT22;21300;52.006;5.798;2023-07-09T08:14:19;25.00;76.90
35127;DHT22;21300;52.006;5.798;2023-07-09T08:16:45;25.00;76.80
35127;DHT22;21300;52.006;5.798;2023-07-09T08:19:10;25.10;76.80
35127;DHT22;21300;52.006;5.798;2023-07-09T08:21:36;25.10;76.90
35127;DHT22;21300;52.006;5.798;2023-07-09T08:24:01;25.10;76.60
35127;DHT22;21300;52.006;5.798;2023-07-09T08:26:27;25.20;76.50
35127;DHT22;21300;52.006;5.798;2023-07-09T08:28:53;25.20;76.40
35127;DHT22;21300;52.006;5.798;2023-07-09T08:31:19;25.20;76.50
35127;DHT22;21300;52.006;5.798;2023-07-09T08:33:45;25.30;76.50
35127;DHT22;21300;52.006;5.798;2023-07-09T08:36:10;25.30;76.30
35127;DHT22;21300;52.006;5.798;2023-07-09T08:38:36;25.40;76.50
35127;DHT22;21300;52.006;5.798;2023-07-09T08:41:08;25.40;76.20
35127;DHT22;21300;52.006;5.798;2023-07-09T08:46:51;25.50;76.30
35127;DHT22;21300;52.006;5.798;2023-07-09T08:49:33;25.60;76.40
35127;DHT22;21300;52.006;5.798;2023-07-09T08:52:00;25.60;76.10
35127;DHT22;21300;52.006;5.798;2023-07-09T08:54:34;25.60;76.10
35127;DHT22;21300;52.006;5.798;2023-07-09T08:57:15;25.70;76.00
35127;DHT22;21300;52.006;5.798;2023-07-09T08:59:42;25.70;76.10
35127;DHT22;21300;52.006;5.798;2023-07-09T09:02:30;25.70;76.00
35127;DHT22;21300;52.006;5.798;2023-07-09T09:04:57;25.80;75.90
35127;DHT22;21300;52.006;5.798;2023-07-09T09:07:39;25.80;75.70
35127;DHT22;21300;52.006;5.798;2023-07-09T09:10:12;25.90;75.80
35127;DHT22;21300;52.006;5.798;2023-07-09T09:15:27;26.00;75.80
35127;DHT22;21300;52.006;5.798;2023-07-09T09:17:57;26.00;75.50
35127;DHT22;21300;52.006;5.798;2023-07-09T09:20:25;26.00;75.50
35127;DHT22;21300;52.006;5.798;2023-07-09T09:25:28;26.10;75.60
35127;DHT22;21300;52.006;5.798;2023-07-09T09:27:55;26.20;75.60
35127;DHT22;21300;52.006;5.798;2023-07-09T09:30:22;26.20;75.50
35127;DHT22;21300;52.006;5.798;2023-07-09T09:32:51;26.30;75.40
35127;DHT22;21300;52.006;5.798;2023-07-09T09:35:19;26.30;75.50
35127;DHT22;21300;52.006;5.798;2023-07-09T09:37:54;26.40;75.40
35127;DHT22;21300;52.006;5.798;2023-07-09T09:40:21;26.40;75.60
35127;DHT22;21300;52.006;5.798;2023-07-09T09:42:49;26.50;75.40
35127;DHT22;21300;52.006;5.798;2023-07-09T09:45:20;26.50;75.60
35127;DHT22;21300;52.006;5.798;2023-07-09T09:47:47;26.50;75.60
35127;DHT22;21300;52.006;5.798;2023-07-09T09:50:19;26.60;75.50
35127;DHT22;21300;52.006;5.798;2023-07-09T09:52:45;26.60;75.40
35127;DHT22;21300;52.006;5.798;2023-07-09T09:55:24;26.70;75.40
35127;DHT22;21300;52.006;5.798;2023-07-09T09:57:54;26.70;75.50
35127;DHT22;21300;52.006;5.798;2023-07-09T10:00:23;26.80;76.10
35127;DHT22;21300;52.006;5.798;2023-07-09T10:02:56;26.90;75.20
35127;DHT22;21300;52.006;5.798;2023-07-09T10:05:32;26.90;75.10
35127;DHT22;21300;52.006;5.798;2023-07-09T10:08:12;27.00;75.10
35127;DHT22;21300;52.006;5.798;2023-07-09T10:10:44;27.00;75.00
35127;DHT22;21300;52.006;5.798;2023-07-09T10:13:14;27.10;75.10
35127;DHT22;21300;52.006;5.798;2023-07-09T10:16:09;27.10;75.20
35127;DHT22;21300;52.006;5.798;2023-07-09T10:21:23;27.20;75.30
35127;DHT22;21300;52.006;5.798;2023-07-09T10:26:53;27.30;74.90
35127;DHT22;21300;52.006;5.798;2023-07-09T10:34:57;27.40;75.10
35127;DHT22;21300;52.006;5.798;2023-07-09T10:40:33;27.60;74.60
35127;DHT22;21300;52.006;5.798;2023-07-09T10:43:03;27.60;74.80
35127;DHT22;21300;52.006;5.798;2023-07-09T10:45:47;27.70;75.00
35127;DHT22;21300;52.006;5.798;2023-07-09T10:48:17;27.70;75.00
35127;DHT22;21300;52.006;5.798;2023-07-09T10:50:49;27.80;74.90
35127;DHT22;21300;52.006;5.798;2023-07-09T10:53:42;27.80;74.70
35127;DHT22;21300;52.006;5.798;2023-07-09T10:56:19;27.90;74.50
35127;DHT22;21300;52.006;5.798;2023-07-09T11:01:32;28.00;74.50
35127;DHT22;21300;52.006;5.798;2023-07-09T11:04:04;28.10;74.60
35127;DHT22;21300;52.006;5.798;2023-07-09T11:06:46;28.10;74.80
35127;DHT22;21300;52.006;5.798;2023-07-09T11:09:24;28.10;74.60
35127;DHT22;21300;52.006;5.798;2023-07-09T11:11:54;28.20;74.60
35127;DHT22;21300;52.006;5.798;2023-07-09T11:14:40;28.20;74.30
35127;DHT22;21300;52.006;5.798;2023-07-09T11:17:15;28.30;74.40
35127;DHT22;21300;52.006;5.798;2023-07-09T11:19:45;28.30;74.10
35127;DHT22;21300;52.006;5.798;2023-07-09T11:22:23;28.40;74.20
35127;DHT22;21300;52.006;5.798;2023-07-09T11:25:03;28.40;74.30
35127;DHT22;21300;52.006;5.798;2023-07-09T11:27:30;28.50;74.40
35127;DHT22;21300;52.006;5.798;2023-07-09T11:29:59;28.60;74.70
35127;DHT22;21300;52.006;5.798;2023-07-09T11:32:26;28.60;74.50
35127;DHT22;21300;52.006;5.798;2023-07-09T11:34:52;28.60;74.20
35127;DHT22;21300;52.006;5.798;2023-07-09T11:37:18;28.70;73.80
35127;DHT22;21300;52.006;5.798;2023-07-09T11:39:47;28.80;73.90
35127;DHT22;21300;52.006;5.798;2023-07-09T11:42:31;28.80;73.80
35127;DHT22;21300;52.006;5.798;2023-07-09T11:45:09;28.80;74.00
35127;DHT22;21300;52.006;5.798;2023-07-09T11:48:16;28.80;73.90
35127;DHT22;21300;52.006;5.798;2023-07-09T11:50:48;28.90;73.80
35127;DHT22;21300;52.006;5.798;2023-07-09T11:53:41;28.90;73.60
35127;DHT22;21300;52.006;5.798;2023-07-09T11:56:08;29.00;73.70
35127;DHT22;21300;52.006;5.798;2023-07-09T11:58:35;29.00;73.70
35127;DHT22;21300;52.006;5.798;2023-07-09T12:01:01;29.10;73.20
35127;DHT22;21300;52.006;5.798;2023-07-09T12:03:32;29.10;73.30
35127;DHT22;21300;52.006;5.798;2023-07-09T12:06:02;29.20;73.30
35127;DHT22;21300;52.006;5.798;2023-07-09T12:08:34;29.20;73.10
35127;DHT22;21300;52.006;5.798;2023-07-09T12:11:01;29.20;73.00
35127;DHT22;21300;52.006;5.798;2023-07-09T12:13:26;29.30;73.10
35127;DHT22;21300;52.006;5.798;2023-07-09T12:15:52;29.30;72.80
35127;DHT22;21300;52.006;5.798;2023-07-09T12:18:17;29.30;73.10
35127;DHT22;21300;52.006;5.798;2023-07-09T12:20:48;29.40;73.00
35127;DHT22;21300;52.006;5.798;2023-07-09T12:23:24;29.40;72.70
35127;DHT22;21300;52.006;5.798;2023-07-09T12:25:51;29.50;72.70
35127;DHT22;21300;52.006;5.798;2023-07-09T12:28:18;29.50;72.60
35127;DHT22;21300;52.006;5.798;2023-07-09T12:30:47;29.50;72.30
35127;DHT22;21300;52.006;5.798;2023-07-09T12:33:20;29.50;72.00
35127;DHT22;21300;52.006;5.798;2023-07-09T12:35:47;29.50;71.60
35127;DHT22;21300;52.006;5.798;2023-07-09T12:38:22;29.60;72.60
35127;DHT22;21300;52.006;5.798;2023-07-09T12:40:50;29.70;72.80
35127;DHT22;21300;52.006;5.798;2023-07-09T12:43:21;29.90;72.40
35127;DHT22;21300;52.006;5.798;2023-07-09T12:45:48;29.90;71.80
35127;DHT22;21300;52.006;5.798;2023-07-09T12:48:14;29.90;71.30
35127;DHT22;21300;52.006;5.798;2023-07-09T12:50:40;29.90;71.20
35127;DHT22;21300;52.006;5.798;2023-07-09T12:53:17;30.00;71.30
35127;DHT22;21300;52.006;5.798;2023-07-09T12:55:45;30.00;71.30
35127;DHT22;21300;52.006;5.798;2023-07-09T12:58:21;30.00;71.00
35127;DHT22;21300;52.006;5.798;2023-07-09T13:00:49;30.00;71.20
35127;DHT22;21300;52.006;5.798;2023-07-09T13:03:21;30.00;70.80
35127;DHT22;21300;52.006;5.798;2023-07-09T13:05:58;30.00;70.90
35127;DHT22;21300;52.006;5.798;2023-07-09T13:08:29;30.00;70.70
35127;DHT22;21300;52.006;5.798;2023-07-09T13:10:56;30.00;70.90
35127;DHT22;21300;52.006;5.798;2023-07-09T13:13:23;30.10;70.70
35127;DHT22;21300;52.006;5.798;2023-07-09T13:16:01;30.00;70.30
35127;DHT22;21300;52.006;5.798;2023-07-09T13:18:27;30.10;70.40
35127;DHT22;21300;52.006;5.798;2023-07-09T13:20:55;30.10;69.90
35127;DHT22;21300;52.006;5.798;2023-07-09T13:23:26;30.10;69.60
35127;DHT22;21300;52.006;5.798;2023-07-09T13:25:52;30.20;68.40
35127;DHT22;21300;52.006;5.798;2023-07-09T13:28:27;30.20;68.20
35127;DHT22;21300;52.006;5.798;2023-07-09T13:30:59;30.20;68.30
35127;DHT22;21300;52.006;5.798;2023-07-09T13:33:26;30.20;68.40
35127;DHT22;21300;52.006;5.798;2023-07-09T13:35:52;30.20;68.70
35127;DHT22;21300;52.006;5.798;2023-07-09T13:38:21;30.30;67.00
35127;DHT22;21300;52.006;5.798;2023-07-09T13:40:49;30.30;67.60
35127;DHT22;21300;52.006;5.798;2023-07-09T13:43:26;30.30;67.50
35127;DHT22;21300;52.006;5.798;2023-07-09T13:45:53;30.30;67.60
35127;DHT22;21300;52.006;5.798;2023-07-09T13:48:20;30.30;67.80
35127;DHT22;21300;52.006;5.798;2023-07-09T13:50:49;30.40;68.00
35127;DHT22;21300;52.006;5.798;2023-07-09T13:53:17;30.40;68.10
35127;DHT22;21300;52.006;5.798;2023-07-09T13:55:44;30.40;68.20
35127;DHT22;21300;52.006;5.798;2023-07-09T13:58:11;30.40;68.00
35127;DHT22;21300;52.006;5.798;2023-07-09T14:00:38;30.40;67.80
35127;DHT22;21300;52.006;5.798;2023-07-09T14:03:17;30.40;67.80
35127;DHT22;21300;52.006;5.798;2023-07-09T14:05:44;30.40;67.70
35127;DHT22;21300;52.006;5.798;2023-07-09T14:08:11;30.40;67.50
35127;DHT22;21300;52.006;5.798;2023-07-09T14:10:37;30.40;67.70
35127;DHT22;21300;52.006;5.798;2023-07-09T14:13:03;30.40;67.60
35127;DHT22;21300;52.006;5.798;2023-07-09T14:15:29;30.40;67.70
35127;DHT22;21300;52.006;5.798;2023-07-09T14:17:55;30.40;67.60
35127;DHT22;21300;52.006;5.798;2023-07-09T14:20:22;30.40;66.50
35127;DHT22;21300;52.006;5.798;2023-07-09T14:22:49;30.40;66.70
35127;DHT22;21300;52.006;5.798;2023-07-09T14:25:25;30.40;66.60
35127;DHT22;21300;52.006;5.798;2023-07-09T14:27:52;30.40;66.40
35127;DHT22;21300;52.006;5.798;2023-07-09T14:30:20;30.40;66.30
35127;DHT22;21300;52.006;5.798;2023-07-09T14:32:48;30.40;66.30
35127;DHT22;21300;52.006;5.798;2023-07-09T14:35:21;30.20;66.30
35127;DHT22;21300;52.006;5.798;2023-07-09T14:37:48;30.20;66.30
35127;DHT22;21300;52.006;5.798;2023-07-09T14:40:15;30.30;66.30
35127;DHT22;21300;52.006;5.798;2023-07-09T14:42:42;30.30;65.80
35127;DHT22;21300;52.006;5.798;2023-07-09T14:47:46;30.10;64.90
35127;DHT22;21300;52.006;5.798;2023-07-09T14:50:12;30.20;65.70
35127;DHT22;21300;52.006;5.798;2023-07-09T14:52:38;30.20;65.60
35127;DHT22;21300;52.006;5.798;2023-07-09T14:55:13;30.20;65.70
35127;DHT22;21300;52.006;5.798;2023-07-09T14:57:38;30.10;66.20
35127;DHT22;21300;52.006;5.798;2023-07-09T15:00:04;30.10;66.40
35127;DHT22;21300;52.006;5.798;2023-07-09T15:02:37;30.10;66.40
35127;DHT22;21300;52.006;5.798;2023-07-09T15:05:06;30.10;67.10
35127;DHT22;21300;52.006;5.798;2023-07-09T15:07:35;30.00;67.30
35127;DHT22;21300;52.006;5.798;2023-07-09T15:10:01;30.00;67.80
35127;DHT22;21300;52.006;5.798;2023-07-09T15:12:32;30.00;67.90
35127;DHT22;21300;52.006;5.798;2023-07-09T15:15:24;29.90;68.00
35127;DHT22;21300;52.006;5.798;2023-07-09T15:17:50;29.90;68.20
35127;DHT22;21300;52.006;5.798;2023-07-09T15:20:22;29.90;68.30
35127;DHT22;21300;52.006;5.798;2023-07-09T15:22:48;29.80;68.40
35127;DHT22;21300;52.006;5.798;2023-07-09T15:25:23;29.70;68.70
35127;DHT22;21300;52.006;5.798;2023-07-09T15:27:49;29.70;68.90
35127;DHT22;21300;52.006;5.798;2023-07-09T15:30:20;29.70;69.00
35127;DHT22;21300;52.006;5.798;2023-07-09T15:32:48;29.70;69.10
35127;DHT22;21300;52.006;5.798;2023-07-09T15:35:15;29.70;69.00
35127;DHT22;21300;52.006;5.798;2023-07-09T15:37:41;29.60;68.90
35127;DHT22;21300;52.006;5.798;2023-07-09T15:40:27;29.60;68.90
35127;DHT22;21300;52.006;5.798;2023-07-09T15:42:58;29.60;69.00
35127;DHT22;21300;52.006;5.798;2023-07-09T15:45:24;29.60;69.10
35127;DHT22;21300;52.006;5.798;2023-07-09T15:47:51;29.50;69.10
35127;DHT22;21300;52.006;5.798;2023-07-09T15:50:21;29.50;69.00
35127;DHT22;21300;52.006;5.798;2023-07-09T15:52:48;29.50;69.20
35127;DHT22;21300;52.006;5.798;2023-07-09T15:55:17;29.40;69.30
35127;DHT22;21300;52.006;5.798;2023-07-09T15:57:44;29.40;69.40
35127;DHT22;21300;52.006;5.798;2023-07-09T16:00:16;29.40;69.60
35127;DHT22;21300;52.006;5.798;2023-07-09T16:02:42;29.40;69.70
35127;DHT22;21300;52.006;5.798;2023-07-09T16:05:19;29.40;69.70
35127;DHT22;21300;52.006;5.798;2023-07-09T16:07:45;29.30;69.80
35127;DHT22;21300;52.006;5.798;2023-07-09T16:10:11;29.30;69.80